Huvudsida
METAR-TAF:

METAR-TAF

Flygplatser :

Tuticorin Airport

Thoothukkudi, Indien

latitud: 8-43-27N, longitud: 78-01-33E, höjd: 39 m

Aktuellt väderrapport

Denna rapport gjordes för 23 minuter sedan, klockan 09:00 UTC
Vind 10 kt från väst/nordväst i byarna ända upp till 20 kt
Temperatur 31°C
Fuktighet 66%
Tryck 1003 hPa
Sikt: 6000 m
Spridda moln på en höjd av 1800 ft
Brutna moln på en höjd av 10000 ft

METAR: VOTK 200900Z 30010G20KT 6000 SCT018 BKN100 31/24 Q1003 NOSIG

Tid: 14:53 (09:23 UTC)


TAF: saknas

Aktuella väderrapporter och prognoser från 4000 flygplatser (METAR- och TAF-rapporter).

De tillgängliga stationerna syns som gula och röda prickar på kartan.

För musen över prickarna för att se namnen på stationerna.

Klicka sedan för att få väderrapporter och prognoser.

För att ändra kartan: Klicka på de gröna knapparna med ett svart kors på för att zooma in; den gröna knappen med ett streck på för att zooma ut; eller på de gröna pilarna för angränsande kartor.


METAR-TAF: